createdAt,value
2022-07-27T00:01:51.605Z,1.00
2022-07-27T00:04:22.073Z,1.00
2022-07-27T00:06:49.409Z,1.00
2022-07-27T00:09:18.363Z,1.00
2022-07-27T00:11:45.986Z,1.00
2022-07-27T00:14:13.310Z,1.00
2022-07-27T00:16:40.343Z,1.00
2022-07-27T00:19:09.633Z,1.00
2022-07-27T00:21:37.641Z,1.00
2022-07-27T00:24:12.112Z,1.00
2022-07-27T00:26:39.837Z,1.00
2022-07-27T00:29:07.090Z,1.00
2022-07-27T00:31:34.369Z,1.00
2022-07-27T00:34:01.827Z,1.00
2022-07-27T00:36:29.239Z,1.00
2022-07-27T00:38:56.243Z,1.00
2022-07-27T00:41:23.909Z,1.00
2022-07-27T00:43:56.736Z,1.00
2022-07-27T00:46:24.538Z,1.00
2022-07-27T00:48:51.926Z,1.00
2022-07-27T00:51:20.587Z,1.00
2022-07-27T00:53:48.492Z,1.00
2022-07-27T00:56:16.099Z,1.00
2022-07-27T00:58:47.393Z,1.00
2022-07-27T01:01:14.911Z,1.00
2022-07-27T01:03:42.061Z,1.00
2022-07-27T01:06:09.565Z,1.00
2022-07-27T01:08:37.018Z,1.00
2022-07-27T01:11:04.415Z,1.00
2022-07-27T01:13:31.439Z,1.00
2022-07-27T01:15:59.100Z,1.00
2022-07-27T01:18:32.845Z,1.00
2022-07-27T01:21:01.695Z,1.00
2022-07-27T01:23:29.406Z,1.00
2022-07-27T01:25:56.543Z,1.00
2022-07-27T01:28:23.854Z,1.00
2022-07-27T01:30:52.057Z,1.00
2022-07-27T01:33:26.225Z,1.00
2022-07-27T01:35:55.643Z,1.00
2022-07-27T01:38:23.150Z,1.00
2022-07-27T01:40:52.066Z,1.00
2022-07-27T01:43:19.933Z,1.00
2022-07-27T01:45:47.305Z,1.00
2022-07-27T01:48:14.456Z,1.00
2022-07-27T01:50:44.805Z,1.00
2022-07-27T01:53:14.731Z,1.00
2022-07-27T01:55:42.496Z,1.00
2022-07-27T01:58:10.018Z,1.00
2022-07-27T02:00:37.730Z,1.00
2022-07-27T02:03:06.171Z,1.00
2022-07-27T02:05:33.316Z,1.00
2022-07-27T02:08:00.433Z,1.00
2022-07-27T02:10:28.471Z,1.00
2022-07-27T02:12:55.481Z,1.00
2022-07-27T02:15:25.221Z,1.00
2022-07-27T02:17:54.674Z,1.00
2022-07-27T02:20:24.054Z,1.00
2022-07-27T02:22:51.867Z,1.00
2022-07-27T02:25:20.406Z,1.00
2022-07-27T02:27:48.347Z,1.00
2022-07-27T02:30:17.652Z,1.00
2022-07-27T02:32:45.209Z,1.00
2022-07-27T02:35:19.747Z,1.00
2022-07-27T02:37:48.697Z,1.00
2022-07-27T02:40:17.750Z,1.00
2022-07-27T02:42:46.596Z,1.00
2022-07-27T02:45:15.384Z,1.00
2022-07-27T02:47:43.695Z,1.00
2022-07-27T02:50:11.311Z,1.00
2022-07-27T02:52:38.603Z,1.00
2022-07-27T02:55:06.207Z,1.00
2022-07-27T02:57:36.038Z,1.00
2022-07-27T03:00:05.548Z,1.00
2022-07-27T03:02:33.272Z,1.00
2022-07-27T03:05:00.173Z,1.00
2022-07-27T03:07:27.101Z,1.00
2022-07-27T03:09:54.068Z,1.00
2022-07-27T03:12:21.097Z,1.00
2022-07-27T03:14:48.029Z,1.00
2022-07-27T03:17:15.105Z,10.10
2022-07-27T03:19:42.017Z,18.70
2022-07-27T03:22:09.008Z,19.20
2022-07-27T03:24:35.916Z,21.60
2022-07-27T03:27:03.265Z,24.10
2022-07-27T03:29:30.200Z,13.70
2022-07-27T03:31:57.173Z,7.10
2022-07-27T03:34:24.064Z,19.50
2022-07-27T03:36:51.008Z,31.90
2022-07-27T03:39:17.936Z,50.70
2022-07-27T03:41:44.885Z,67.40
2022-07-27T03:44:11.856Z,75.00
2022-07-27T03:46:39.558Z,75.40
2022-07-27T03:49:14.310Z,91.20
2022-07-27T03:51:42.734Z,94.40
2022-07-27T03:54:10.463Z,94.20
2022-07-27T03:56:37.371Z,96.70
2022-07-27T03:59:05.998Z,99.90
2022-07-27T04:01:33.079Z,99.50
2022-07-27T04:04:00.055Z,92.50
2022-07-27T04:06:27.817Z,85.60
2022-07-27T04:09:00.927Z,75.00
2022-07-27T04:11:35.389Z,76.00
2022-07-27T04:14:04.577Z,93.40
2022-07-27T04:16:35.851Z,98.20
2022-07-27T04:19:03.101Z,99.90
2022-07-27T04:21:33.760Z,99.90
2022-07-27T04:24:01.741Z,99.90
2022-07-27T04:26:29.038Z,99.90
2022-07-27T04:28:56.318Z,99.90
2022-07-27T04:31:23.960Z,99.90
2022-07-27T04:33:50.983Z,99.90
2022-07-27T04:36:18.058Z,99.90
2022-07-27T04:38:45.056Z,99.90
2022-07-27T04:41:12.966Z,99.90
2022-07-27T04:43:40.030Z,99.90
2022-07-27T04:46:10.532Z,99.90
2022-07-27T04:48:41.435Z,99.90
2022-07-27T04:51:16.306Z,99.90
2022-07-27T04:53:53.663Z,99.90
2022-07-27T04:56:26.841Z,99.90
2022-07-27T04:58:54.564Z,99.90
2022-07-27T05:01:23.087Z,99.90
2022-07-27T05:03:50.265Z,99.90
2022-07-27T05:06:17.512Z,99.90
2022-07-27T05:08:44.532Z,99.90
2022-07-27T05:11:11.694Z,88.20
2022-07-27T05:13:40.698Z,85.60
2022-07-27T05:16:12.345Z,98.10
2022-07-27T05:18:40.153Z,99.30
2022-07-27T05:21:08.438Z,93.60
2022-07-27T05:23:36.164Z,99.90
2022-07-27T05:26:03.213Z,99.90
2022-07-27T05:28:30.441Z,99.90
2022-07-27T05:30:57.377Z,99.90
2022-07-27T05:33:25.823Z,99.90
2022-07-27T05:35:53.071Z,99.90
2022-07-27T05:38:20.136Z,99.90
2022-07-27T05:40:47.538Z,99.90
2022-07-27T05:43:14.772Z,99.90
2022-07-27T05:45:42.223Z,99.90
2022-07-27T05:48:09.378Z,99.90
2022-07-27T05:50:37.457Z,99.90
2022-07-27T05:53:04.437Z,99.90
2022-07-27T05:55:31.946Z,99.90
2022-07-27T05:57:59.005Z,99.90
2022-07-27T06:00:26.147Z,99.90
2022-07-27T06:02:53.134Z,99.90
2022-07-27T06:05:20.163Z,99.90
2022-07-27T06:07:58.973Z,94.90
2022-07-27T06:10:27.697Z,78.30
2022-07-27T06:12:55.449Z,74.50
2022-07-27T06:15:24.125Z,32.80
2022-07-27T06:17:53.339Z,13.50
2022-07-27T06:20:21.949Z,6.60
2022-07-27T06:22:50.741Z,1.00
2022-07-27T06:25:19.368Z,1.00
2022-07-27T06:27:46.839Z,1.00
2022-07-27T06:30:16.358Z,1.00
2022-07-27T06:32:43.929Z,1.00
2022-07-27T06:35:12.665Z,1.00
2022-07-27T06:37:44.202Z,1.00
2022-07-27T06:40:15.124Z,1.00
2022-07-27T06:42:42.487Z,1.00
2022-07-27T06:45:11.172Z,1.00
2022-07-27T06:47:49.415Z,1.00
2022-07-27T06:50:18.742Z,1.00
2022-07-27T06:52:46.871Z,1.00
2022-07-27T06:55:14.311Z,1.00
2022-07-27T06:57:43.073Z,1.00
2022-07-27T07:00:11.395Z,1.00
2022-07-27T07:02:39.804Z,1.00
2022-07-27T07:05:07.256Z,1.00
2022-07-27T07:07:34.339Z,1.00
2022-07-27T07:10:01.264Z,1.00
2022-07-27T07:12:28.567Z,1.00
2022-07-27T07:14:56.023Z,1.00
2022-07-27T07:17:22.995Z,1.00
2022-07-27T07:19:50.008Z,1.00
2022-07-27T07:22:16.942Z,1.00
2022-07-27T07:24:44.135Z,1.00
2022-07-27T07:27:11.088Z,1.00
2022-07-27T07:29:38.027Z,1.00
2022-07-27T07:32:05.254Z,1.00
2022-07-27T07:34:32.445Z,1.00
2022-07-27T07:36:59.388Z,1.00
2022-07-27T07:39:31.172Z,1.00
2022-07-27T07:41:58.616Z,1.00
2022-07-27T07:44:25.646Z,1.00
2022-07-27T07:46:52.674Z,1.00
2022-07-27T07:49:19.771Z,1.00
2022-07-27T07:52:05.544Z,1.00
2022-07-27T07:54:32.479Z,1.00
2022-07-27T07:56:59.481Z,1.00
2022-07-27T07:59:26.666Z,1.00
2022-07-27T08:01:53.810Z,1.00
2022-07-27T08:04:20.833Z,1.00
2022-07-27T08:06:48.009Z,1.00
2022-07-27T08:09:17.116Z,1.00
2022-07-27T08:11:45.010Z,1.00
2022-07-27T08:14:12.021Z,1.00
2022-07-27T08:16:39.280Z,1.00
2022-07-27T08:19:09.331Z,1.00
2022-07-27T08:21:36.599Z,1.00
2022-07-27T08:24:03.919Z,1.00
2022-07-27T08:26:30.922Z,1.00
2022-07-27T08:28:59.477Z,1.00
2022-07-27T08:31:52.252Z,1.00
2022-07-27T08:34:20.737Z,1.00
2022-07-27T08:36:47.791Z,1.00
2022-07-27T08:39:41.192Z,1.00
2022-07-27T08:42:06.451Z,1.00
2022-07-27T08:44:34.943Z,1.00
2022-07-27T08:47:03.110Z,1.00
2022-07-27T08:49:42.534Z,1.00
2022-07-27T08:52:11.605Z,1.00
2022-07-27T08:54:40.615Z,1.00
2022-07-27T08:57:09.355Z,1.00
2022-07-27T08:59:36.756Z,1.00
2022-07-27T09:02:13.162Z,1.00
2022-07-27T09:04:40.481Z,1.00
2022-07-27T09:07:07.691Z,1.00
2022-07-27T09:09:47.295Z,1.00
2022-07-27T09:12:14.354Z,1.00
2022-07-27T09:14:42.422Z,1.00
2022-07-27T09:20:19.514Z,1.00
2022-07-27T09:22:52.635Z,1.00
2022-07-27T09:25:44.779Z,1.00
2022-07-27T09:28:09.542Z,1.00
2022-07-27T09:30:42.674Z,1.00
2022-07-27T09:33:10.059Z,1.00
2022-07-27T09:35:38.069Z,1.00
2022-07-27T09:38:21.965Z,1.00
2022-07-27T09:41:02.670Z,1.00
2022-07-27T09:46:28.107Z,1.00
2022-07-27T09:48:55.307Z,1.00
2022-07-27T09:54:13.035Z,1.00
2022-07-27T09:56:40.716Z,1.00
2022-07-27T09:59:07.919Z,1.00
2022-07-27T10:01:42.263Z,1.00
2022-07-27T10:04:14.363Z,1.00
2022-07-27T10:07:01.100Z,1.00
2022-07-27T10:09:30.687Z,1.00
2022-07-27T10:11:58.591Z,1.00
2022-07-27T10:14:28.566Z,1.00
2022-07-27T10:16:56.285Z,1.00
2022-07-27T10:19:47.286Z,1.00
2022-07-27T10:22:14.965Z,1.00
2022-07-27T10:24:42.767Z,1.00
2022-07-27T10:27:30.869Z,1.00
2022-07-27T10:29:58.680Z,1.00
2022-07-27T10:32:33.698Z,1.00
2022-07-27T10:35:01.938Z,1.00
2022-07-27T10:37:34.514Z,1.00
2022-07-27T10:40:23.771Z,1.00
2022-07-27T10:42:54.585Z,1.00
2022-07-27T10:45:22.378Z,1.00
2022-07-27T10:47:53.543Z,1.00
2022-07-27T10:50:27.484Z,1.00
2022-07-27T10:52:57.716Z,1.00
2022-07-27T10:55:30.903Z,1.00
2022-07-27T10:58:00.757Z,1.00
2022-07-27T11:00:54.022Z,99.90
2022-07-27T11:03:22.720Z,99.90
2022-07-27T11:06:22.007Z,99.90
2022-07-27T11:09:16.967Z,99.90
2022-07-27T11:11:38.797Z,99.90
2022-07-27T11:14:06.105Z,99.90
2022-07-27T11:16:43.116Z,99.90
2022-07-27T11:19:23.989Z,99.90
2022-07-27T11:21:52.606Z,99.90
2022-07-27T11:24:19.636Z,99.90
2022-07-27T11:26:50.572Z,99.90
2022-07-27T11:29:19.561Z,99.90
2022-07-27T11:31:57.805Z,99.90
2022-07-27T11:34:37.235Z,99.90
2022-07-27T11:37:19.062Z,99.90
2022-07-27T11:40:20.272Z,99.90
2022-07-27T11:42:39.506Z,99.90
2022-07-27T11:45:07.281Z,99.90
2022-07-27T11:47:34.368Z,99.90
2022-07-27T11:50:07.526Z,99.90
2022-07-27T11:52:35.224Z,99.90
2022-07-27T11:55:02.777Z,99.90
2022-07-27T11:57:33.997Z,99.90
2022-07-27T12:00:02.251Z,99.90
2022-07-27T12:02:29.721Z,99.90
2022-07-27T12:05:02.605Z,99.90
2022-07-27T12:07:32.222Z,99.90
2022-07-27T12:10:02.362Z,99.90
2022-07-27T12:12:30.341Z,99.90
2022-07-27T12:14:58.380Z,99.90
2022-07-27T12:17:33.771Z,99.90
2022-07-27T12:20:09.306Z,99.90
2022-07-27T12:22:41.344Z,99.90
2022-07-27T12:25:17.425Z,99.90
2022-07-27T12:27:58.054Z,99.90
2022-07-27T12:30:31.393Z,99.90
2022-07-27T12:32:58.997Z,99.90
2022-07-27T12:35:37.070Z,99.90
2022-07-27T12:38:08.254Z,99.90
2022-07-27T12:40:43.386Z,99.90
2022-07-27T12:43:11.156Z,99.90
2022-07-27T12:45:39.342Z,99.90
2022-07-27T12:48:11.670Z,99.90
2022-07-27T12:50:41.100Z,99.90
2022-07-27T12:53:09.581Z,99.90
2022-07-27T12:55:37.499Z,99.90
2022-07-27T12:58:04.682Z,99.90
2022-07-27T13:00:34.305Z,99.90
2022-07-27T13:03:03.451Z,99.90
2022-07-27T13:05:31.705Z,99.90
2022-07-27T13:07:59.196Z,99.90
2022-07-27T13:10:27.391Z,99.90
2022-07-27T13:12:54.507Z,99.90
2022-07-27T13:15:21.882Z,99.90
2022-07-27T13:17:49.243Z,99.90
2022-07-27T13:20:17.603Z,99.90
2022-07-27T13:22:45.701Z,99.90
2022-07-27T13:25:17.276Z,99.90
2022-07-27T13:27:46.550Z,99.90
2022-07-27T13:30:14.858Z,99.90
2022-07-27T13:32:42.594Z,99.90
2022-07-27T13:35:12.479Z,99.90
2022-07-27T13:37:40.522Z,99.90
2022-07-27T13:40:09.217Z,99.90
2022-07-27T13:42:36.795Z,99.90
2022-07-27T13:45:09.743Z,99.90
2022-07-27T13:47:39.453Z,99.90
2022-07-27T13:50:16.736Z,99.90
2022-07-27T13:52:46.078Z,99.90
2022-07-27T13:55:14.583Z,99.90
2022-07-27T13:57:41.717Z,99.90
2022-07-27T14:00:09.564Z,99.90
2022-07-27T14:02:36.649Z,99.90
2022-07-27T14:05:06.035Z,99.90
2022-07-27T14:07:34.065Z,99.90
2022-07-27T14:10:19.750Z,99.90
2022-07-27T14:12:46.730Z,99.90
2022-07-27T14:15:13.683Z,99.90
2022-07-27T14:17:40.753Z,99.90
2022-07-27T14:20:08.832Z,99.90
2022-07-27T14:22:35.872Z,99.90
2022-07-27T14:25:02.982Z,99.90
2022-07-27T14:27:36.532Z,99.90
2022-07-27T14:30:06.868Z,99.90
2022-07-27T14:32:35.426Z,99.90
2022-07-27T14:35:03.087Z,99.90
2022-07-27T14:37:30.197Z,99.90
2022-07-27T14:39:57.226Z,99.90
2022-07-27T14:42:25.239Z,99.90
2022-07-27T14:44:52.865Z,99.90
2022-07-27T14:47:20.152Z,99.90
2022-07-27T14:49:47.367Z,99.90
2022-07-27T14:52:14.670Z,99.90
2022-07-27T14:54:43.484Z,99.90
2022-07-27T14:57:11.020Z,99.90
2022-07-27T14:59:38.756Z,99.90
2022-07-27T15:02:06.254Z,99.90
2022-07-27T15:04:33.343Z,99.90
2022-07-27T15:07:00.774Z,99.90
2022-07-27T15:09:30.519Z,99.90
2022-07-27T15:11:59.854Z,99.90
2022-07-27T15:14:27.468Z,99.90
2022-07-27T15:16:55.794Z,99.90
2022-07-27T15:19:23.138Z,99.90
2022-07-27T15:21:50.565Z,99.90
2022-07-27T15:24:17.636Z,99.90
2022-07-27T15:26:44.694Z,99.90
2022-07-27T15:29:15.015Z,99.90
2022-07-27T15:31:43.237Z,99.90
2022-07-27T15:34:10.654Z,99.90
2022-07-27T15:36:44.790Z,99.90
2022-07-27T15:39:14.782Z,99.90
2022-07-27T15:41:42.873Z,99.90
2022-07-27T15:44:10.070Z,99.90
2022-07-27T15:46:37.098Z,99.90
2022-07-27T15:49:04.360Z,99.90
2022-07-27T15:51:32.566Z,99.90
2022-07-27T15:53:59.836Z,99.90
2022-07-27T15:56:27.017Z,99.90
2022-07-27T15:58:54.483Z,99.90
2022-07-27T16:01:22.227Z,99.90
2022-07-27T16:03:50.460Z,99.90
2022-07-27T16:06:19.156Z,99.90
2022-07-27T16:08:47.437Z,99.90
2022-07-27T16:11:14.866Z,99.90
2022-07-27T16:13:42.203Z,99.90
2022-07-27T16:16:28.010Z,99.90
2022-07-27T16:19:00.173Z,99.90
2022-07-27T16:21:54.750Z,99.90
2022-07-27T16:24:24.658Z,99.90
2022-07-27T16:26:51.898Z,99.90
2022-07-27T16:29:18.847Z,99.90
2022-07-27T16:31:45.888Z,99.90
2022-07-27T16:34:13.723Z,99.90
2022-07-27T16:36:41.096Z,99.90
2022-07-27T16:39:08.247Z,99.90
2022-07-27T16:41:35.258Z,99.90
2022-07-27T16:44:02.232Z,99.90
2022-07-27T16:46:29.309Z,99.90
2022-07-27T16:48:56.515Z,99.90
2022-07-27T16:51:23.726Z,99.90
2022-07-27T16:53:50.870Z,99.90
2022-07-27T16:56:18.263Z,99.90
2022-07-27T16:58:45.514Z,99.90
2022-07-27T17:01:21.804Z,99.90
2022-07-27T17:03:49.760Z,99.90
2022-07-27T17:06:17.811Z,99.90
2022-07-27T17:08:45.371Z,99.90
2022-07-27T17:11:13.230Z,99.90
2022-07-27T17:13:46.213Z,99.90
2022-07-27T17:16:17.536Z,99.90
2022-07-27T17:18:44.868Z,99.90
2022-07-27T17:21:14.849Z,99.90
2022-07-27T17:23:44.076Z,99.90
2022-07-27T17:26:12.156Z,99.90
2022-07-27T17:28:40.451Z,99.90
2022-07-27T17:31:12.457Z,99.90
2022-07-27T17:33:40.965Z,99.90
2022-07-27T17:36:14.532Z,99.90
2022-07-27T17:38:44.287Z,99.90
2022-07-27T17:41:21.737Z,99.90
2022-07-27T17:43:52.459Z,99.90
2022-07-27T17:46:19.909Z,99.90
2022-07-27T17:48:47.371Z,99.90
2022-07-27T17:51:15.483Z,99.90
2022-07-27T17:53:43.859Z,99.90
2022-07-27T17:56:11.820Z,99.90
2022-07-27T17:58:38.915Z,99.90
2022-07-27T18:01:07.472Z,99.90
2022-07-27T18:03:35.137Z,99.90
2022-07-27T18:06:02.649Z,99.90
2022-07-27T18:08:29.862Z,99.90
2022-07-27T18:10:57.241Z,99.90
2022-07-27T18:13:39.211Z,99.90
2022-07-27T18:16:09.279Z,99.90
2022-07-27T18:18:37.309Z,99.90
2022-07-27T18:21:05.152Z,99.90
2022-07-27T18:23:32.802Z,99.90
2022-07-27T18:26:00.062Z,99.90
2022-07-27T18:28:27.007Z,99.90
2022-07-27T18:30:58.339Z,99.90
2022-07-27T18:33:26.406Z,99.90
2022-07-27T18:36:03.651Z,99.90
2022-07-27T18:38:30.957Z,99.90
2022-07-27T18:41:00.682Z,99.90
2022-07-27T18:43:27.573Z,99.90
2022-07-27T18:45:54.706Z,99.90
2022-07-27T18:48:22.365Z,99.90
2022-07-27T18:50:49.377Z,99.90
2022-07-27T18:53:16.513Z,99.90
2022-07-27T18:55:44.666Z,99.90
2022-07-27T18:58:11.741Z,99.90
2022-07-27T19:00:38.973Z,99.90
2022-07-27T19:03:09.315Z,99.90
2022-07-27T19:05:40.862Z,99.90
2022-07-27T19:08:13.455Z,99.90
2022-07-27T19:10:43.120Z,99.90
2022-07-27T19:13:11.452Z,99.90
2022-07-27T19:15:39.116Z,99.90
2022-07-27T19:18:07.330Z,99.90
2022-07-27T19:20:36.733Z,99.90
2022-07-27T19:23:05.450Z,99.90
2022-07-27T19:25:33.859Z,99.90
2022-07-27T19:28:01.699Z,99.90
2022-07-27T19:30:29.162Z,99.90
2022-07-27T19:32:56.571Z,99.90
2022-07-27T19:35:23.815Z,99.90
2022-07-27T19:37:50.924Z,99.90
2022-07-27T19:43:08.479Z,99.90
2022-07-27T19:45:36.836Z,99.90
2022-07-27T19:48:05.706Z,99.90
2022-07-27T19:50:33.394Z,99.90
2022-07-27T19:53:01.392Z,99.90
2022-07-27T19:55:28.409Z,99.90
2022-07-27T19:57:55.527Z,1.00
2022-07-27T20:00:22.680Z,1.00
2022-07-27T20:02:49.749Z,1.00
2022-07-27T20:05:16.998Z,1.00
2022-07-27T20:07:44.511Z,1.00
2022-07-27T20:10:12.142Z,1.00
2022-07-27T20:12:39.391Z,1.00
2022-07-27T20:15:07.019Z,1.00
2022-07-27T20:17:37.221Z,1.00
2022-07-27T20:20:08.542Z,1.00
2022-07-27T20:22:35.497Z,1.00
2022-07-27T20:25:03.469Z,1.00
2022-07-27T20:27:30.349Z,1.00
2022-07-27T20:29:57.261Z,1.00
2022-07-27T20:32:25.314Z,1.00
2022-07-27T20:34:52.597Z,1.00
2022-07-27T20:37:19.738Z,1.00
2022-07-27T20:39:46.910Z,1.00
2022-07-27T20:42:13.898Z,1.00
2022-07-27T20:44:40.822Z,1.00
2022-07-27T20:47:09.316Z,1.00
2022-07-27T20:49:36.652Z,1.00
2022-07-27T20:52:04.529Z,1.00
2022-07-27T20:54:34.621Z,1.00
2022-07-27T20:57:02.360Z,1.00
2022-07-27T20:59:29.341Z,1.00
2022-07-27T21:01:56.968Z,1.00
2022-07-27T21:04:24.869Z,1.00
2022-07-27T21:06:54.006Z,1.00
2022-07-27T21:09:23.618Z,1.00
2022-07-27T21:11:53.785Z,1.00
2022-07-27T21:14:20.921Z,1.00
2022-07-27T21:16:47.942Z,1.00
2022-07-27T21:19:16.127Z,1.00
2022-07-27T21:21:43.717Z,1.00
2022-07-27T21:24:18.369Z,1.00
2022-07-27T21:26:50.744Z,1.00
2022-07-27T21:29:19.437Z,1.00
2022-07-27T21:31:49.121Z,1.00
2022-07-27T21:34:18.398Z,1.00
2022-07-27T21:36:45.700Z,1.00
2022-07-27T21:39:13.404Z,1.00
2022-07-27T21:41:40.501Z,1.00
2022-07-27T21:44:07.661Z,1.00
2022-07-27T21:46:34.674Z,1.00
2022-07-27T21:49:02.598Z,1.00
2022-07-27T21:51:29.633Z,1.00
2022-07-27T21:53:56.993Z,1.00
2022-07-27T21:56:24.923Z,1.00
2022-07-27T21:58:52.348Z,1.00
2022-07-27T22:01:19.707Z,1.00
2022-07-27T22:03:46.929Z,1.00
2022-07-27T22:06:14.301Z,1.00
2022-07-27T22:08:41.557Z,1.00
2022-07-27T22:11:09.008Z,1.00
2022-07-27T22:13:36.185Z,1.00
2022-07-27T22:16:04.586Z,1.00
2022-07-27T22:18:32.511Z,1.00
2022-07-27T22:20:59.975Z,1.00
2022-07-27T22:23:27.318Z,1.00
2022-07-27T22:25:54.529Z,1.00
2022-07-27T22:28:26.247Z,1.00
2022-07-27T22:31:19.802Z,1.00
2022-07-27T22:33:44.402Z,1.00
2022-07-27T22:36:12.235Z,1.00
2022-07-27T22:38:39.345Z,1.00
2022-07-27T22:41:06.912Z,1.00
2022-07-27T22:43:34.049Z,1.00
2022-07-27T22:46:03.623Z,1.00
2022-07-27T22:48:30.751Z,1.00
2022-07-27T22:50:57.753Z,1.00
2022-07-27T22:53:24.791Z,1.00
2022-07-27T22:55:51.757Z,1.00
2022-07-27T22:58:18.803Z,1.00
2022-07-27T23:00:45.883Z,1.00
2022-07-27T23:03:12.972Z,1.00
2022-07-27T23:05:40.085Z,1.00
2022-07-27T23:08:07.166Z,1.00
2022-07-27T23:10:46.691Z,1.00
2022-07-27T23:13:18.622Z,1.00
2022-07-27T23:15:46.629Z,1.00
2022-07-27T23:18:13.887Z,1.00
2022-07-27T23:20:41.748Z,1.00
2022-07-27T23:23:15.416Z,1.00
2022-07-27T23:25:47.513Z,1.00
2022-07-27T23:28:15.463Z,1.00
2022-07-27T23:30:42.642Z,1.00
2022-07-27T23:33:09.708Z,1.00
2022-07-27T23:35:36.687Z,1.00
2022-07-27T23:38:03.775Z,1.00
2022-07-27T23:40:30.833Z,1.00
2022-07-27T23:42:57.760Z,1.00
2022-07-27T23:45:25.040Z,1.00
2022-07-27T23:47:52.224Z,1.00
2022-07-27T23:50:19.162Z,1.00
2022-07-27T23:52:46.280Z,1.00
2022-07-27T23:55:13.205Z,1.00
2022-07-27T23:57:40.146Z,1.00
